Time;durP1;ratioP1;P1;durP2;ratioP2;P2;SDS_P1;SDS_P2;PMS_P1;PMS_P2;Temp;Humidity;BMP_temperature;BMP_pressure;BME280_temperature;BME280_humidity;BME280_pressure;Samples;Min_cycle;Max_cycle;Signal;HPM_P1;HPM_P2
2023/01/09 00:01:10;;;;;;;4.53;2.30;;;6.80;99.90;;;;;;5052373;28;20494;-51
2023/01/09 00:03:36;;;;;;;3.10;2.22;;;6.70;99.90;;;;;;5039283;28;20039;-51
2023/01/09 00:06:02;;;;;;;7.50;2.58;;;6.70;99.90;;;;;;5039148;28;20103;-51
2023/01/09 00:08:28;;;;;;;4.72;2.28;;;6.70;99.90;;;;;;5036455;28;20497;-51
2023/01/09 00:10:53;;;;;;;4.43;2.78;;;6.70;99.90;;;;;;5037275;28;20474;-48
2023/01/09 00:13:19;;;;;;;4.68;2.80;;;6.60;99.90;;;;;;5038725;28;20057;-51
2023/01/09 00:15:44;;;;;;;2.88;2.58;;;6.60;99.90;;;;;;5035907;28;20045;-52
2023/01/09 00:18:10;;;;;;;3.00;2.35;;;6.60;99.90;;;;;;5035559;28;20277;-48
2023/01/09 00:20:36;;;;;;;3.53;2.50;;;6.60;99.90;;;;;;5038579;28;20027;-48
2023/01/09 00:23:02;;;;;;;4.32;3.00;;;6.60;99.90;;;;;;5039945;28;20402;-51
2023/01/09 00:25:28;;;;;;;4.40;2.38;;;6.60;99.90;;;;;;5052275;28;20052;-48
2023/01/09 00:27:53;;;;;;;4.50;2.88;;;6.60;99.90;;;;;;5070302;28;20060;-49
2023/01/09 00:30:19;;;;;;;4.40;2.50;;;6.60;99.90;;;;;;5059410;28;20033;-51
2023/01/09 00:32:45;;;;;;;5.15;2.53;;;6.60;99.90;;;;;;5070834;28;20058;-51
2023/01/09 00:35:15;;;;;;;2.90;2.50;;;6.70;99.90;;;;;;5071718;28;20031;-49
2023/01/09 00:37:41;;;;;;;4.47;2.50;;;6.80;99.90;;;;;;5069986;28;20356;-49
2023/01/09 00:40:07;;;;;;;4.05;2.80;;;6.80;99.90;;;;;;5071723;28;20104;-51
2023/01/09 00:42:35;;;;;;;6.35;2.70;;;6.70;99.90;;;;;;5069790;28;20530;-51
2023/01/09 00:45:09;;;;;;;4.03;2.30;;;6.70;99.90;;;;;;5064562;28;20024;-51
2023/01/09 00:47:41;;;;;;;3.08;2.38;;;6.70;99.90;;;;;;5063386;28;20064;-50
2023/01/09 00:50:15;;;;;;;5.05;3.13;;;6.70;99.90;;;;;;5071615;28;20111;-51
2023/01/09 00:52:42;;;;;;;5.35;2.53;;;6.60;99.90;;;;;;5071374;28;20056;-50
2023/01/09 00:55:08;;;;;;;4.15;2.50;;;6.60;99.90;;;;;;5071264;28;20039;-51
2023/01/09 00:57:34;;;;;;;4.95;3.08;;;6.50;99.90;;;;;;5071029;28;20113;-51
2023/01/09 01:00:01;;;;;;;4.85;3.22;;;6.50;99.90;;;;;;5070965;28;20109;-51
2023/01/09 01:02:26;;;;;;;3.63;2.45;;;6.50;99.90;;;;;;5052825;28;20021;-50
2023/01/09 01:07:39;;;;;;;4.95;3.00;;;6.50;99.90;;;;;;5071167;28;20043;-50
2023/01/09 01:10:20;;;;;;;5.22;3.53;;;6.40;99.90;;;;;;5071301;28;20461;-50
2023/01/09 01:12:47;;;;;;;6.38;3.75;;;6.50;99.90;;;;;;5070736;28;20046;-51
2023/01/09 01:15:13;;;;;;;7.13;3.72;;;6.50;99.90;;;;;;5065303;28;20587;-49
2023/01/09 01:17:40;;;;;;;4.88;3.55;;;6.50;99.90;;;;;;5061074;28;20459;-48
2023/01/09 01:20:10;;;;;;;5.57;3.38;;;6.70;99.90;;;;;;5066973;28;20029;-50
2023/01/09 01:22:36;;;;;;;5.25;3.80;;;6.70;99.90;;;;;;5058709;28;20482;-51
2023/01/09 01:25:03;;;;;;;6.28;3.20;;;6.70;99.90;;;;;;5070770;28;20135;-48
2023/01/09 01:27:29;;;;;;;6.30;3.67;;;6.80;99.90;;;;;;5062789;28;20458;-48
2023/01/09 01:29:55;;;;;;;9.40;4.28;;;6.90;99.90;;;;;;5061036;28;20033;-50
2023/01/09 01:32:20;;;;;;;4.13;3.10;;;6.90;99.90;;;;;;5061852;28;20028;-51
2023/01/09 01:34:46;;;;;;;3.80;3.03;;;6.90;99.90;;;;;;5047780;28;20468;-51
2023/01/09 01:37:12;;;;;;;3.58;3.13;;;7.00;99.90;;;;;;5038149;28;20044;-49
2023/01/09 01:39:38;;;;;;;3.97;2.78;;;7.00;99.90;;;;;;5039972;28;20020;-51
2023/01/09 01:42:04;;;;;;;5.03;3.03;;;6.90;99.90;;;;;;5040837;28;20031;-48
2023/01/09 01:45:07;;;;;;;5.75;3.42;;;7.00;99.90;;;;;;5040982;28;20021;-49
2023/01/09 01:47:41;;;;;;;4.72;2.58;;;7.00;99.90;;;;;;5030159;28;20061;-49
2023/01/09 01:50:28;;;;;;;5.50;3.33;;;7.00;99.90;;;;;;5047982;28;20021;-49
2023/01/09 01:53:21;;;;;;;3.05;2.75;;;7.00;99.90;;;;;;5039885;28;20034;-51
2023/01/09 01:56:19;;;;;;;5.78;2.78;;;7.10;99.90;;;;;;5040735;28;20025;-48
2023/01/09 01:59:13;;;;;;;4.75;3.38;;;7.20;99.90;;;;;;5048925;28;20056;-49
2023/01/09 02:01:42;;;;;;;4.30;3.00;;;7.20;99.90;;;;;;5041846;28;20029;-49
2023/01/09 02:04:08;;;;;;;6.00;3.10;;;7.20;99.90;;;;;;5057617;28;20024;-51
2023/01/09 02:06:36;;;;;;;6.50;3.28;;;7.20;99.90;;;;;;5066412;28;20039;-51
2023/01/09 02:09:04;;;;;;;4.60;3.08;;;7.20;99.90;;;;;;5069683;28;20048;-51
2023/01/09 02:11:29;;;;;;;5.32;3.35;;;7.20;99.90;;;;;;5069725;28;20035;-51
2023/01/09 02:13:55;;;;;;;4.63;3.40;;;7.20;99.90;;;;;;5051878;28;20028;-50
2023/01/09 02:16:30;;;;;;;5.72;3.55;;;7.20;99.90;;;;;;5069857;28;20028;-51
2023/01/09 02:19:04;;;;;;;6.00;3.50;;;7.10;99.90;;;;;;5069662;28;20344;-48
2023/01/09 02:21:54;;;;;;;5.28;3.78;;;7.10;99.90;;;;;;5069624;28;20489;-51
2023/01/09 02:24:54;;;;;;;7.20;3.78;;;7.00;99.90;;;;;;5068570;28;20047;-49
2023/01/09 02:27:54;;;;;;;4.43;3.47;;;6.90;99.90;;;;;;5069784;28;20530;-50
2023/01/09 02:30:39;;;;;;;5.28;3.80;;;6.90;99.90;;;;;;5068539;28;20021;-51
2023/01/09 02:33:12;;;;;;;4.45;3.92;;;6.80;99.90;;;;;;5059922;28;20017;-51
2023/01/09 02:35:55;;;;;;;6.05;3.83;;;6.80;99.90;;;;;;5057617;28;20024;-49
2023/01/09 02:38:42;;;;;;;5.90;4.15;;;6.80;99.90;;;;;;5049202;28;20032;-51
2023/01/09 02:41:36;;;;;;;5.88;4.20;;;6.80;99.90;;;;;;5049302;28;20097;-48
2023/01/09 02:44:13;;;;;;;6.72;4.45;;;6.80;99.90;;;;;;5048841;28;20048;-48
2023/01/09 02:46:39;;;;;;;7.30;4.72;;;6.80;99.90;;;;;;5049420;28;20028;-49
2023/01/09 02:49:05;;;;;;;5.43;4.10;;;6.80;99.90;;;;;;5048848;28;20029;-51
2023/01/09 02:51:52;;;;;;;5.63;4.43;;;6.80;99.90;;;;;;5048490;28;20418;-51
2023/01/09 02:54:44;;;;;;;7.53;5.20;;;6.80;99.90;;;;;;5045960;28;20025;-49
2023/01/09 02:57:28;;;;;;;8.05;4.88;;;6.80;99.90;;;;;;5039324;28;20032;-49
2023/01/09 03:00:05;;;;;;;8.60;4.68;;;6.80;99.90;;;;;;5031944;28;20434;-50
2023/01/09 03:02:53;;;;;;;7.13;4.75;;;6.80;99.90;;;;;;5034111;28;20021;-51
2023/01/09 03:05:31;;;;;;;7.07;4.75;;;6.80;99.90;;;;;;5058919;28;20029;-48
2023/01/09 03:08:19;;;;;;;8.30;5.15;;;6.80;99.90;;;;;;5069131;28;20020;-49
2023/01/09 03:11:00;;;;;;;7.25;5.07;;;6.80;99.90;;;;;;5061059;28;20045;-51
2023/01/09 03:13:32;;;;;;;11.90;5.32;;;6.80;99.90;;;;;;5053132;28;20036;-49
2023/01/09 03:16:00;;;;;;;6.55;5.03;;;6.80;99.90;;;;;;5062727;28;20521;-51
2023/01/09 03:18:28;;;;;;;9.00;5.60;;;6.80;99.90;;;;;;5052360;28;20025;-49
2023/01/09 03:20:54;;;;;;;8.73;5.05;;;6.80;99.90;;;;;;5048959;28;20025;-48
2023/01/09 03:23:20;;;;;;;13.95;5.90;;;6.80;99.90;;;;;;5057990;28;20040;-48
2023/01/09 03:25:46;;;;;;;10.50;5.93;;;6.80;99.90;;;;;;5059904;28;20028;-49
2023/01/09 03:28:26;;;;;;;8.05;5.78;;;6.80;99.90;;;;;;5067323;28;20020;-47
2023/01/09 03:30:52;;;;;;;11.93;6.65;;;6.80;99.90;;;;;;5068874;28;20025;-50
2023/01/09 03:33:18;;;;;;;8.50;6.13;;;6.70;99.90;;;;;;5068644;28;20029;-50
2023/01/09 03:35:43;;;;;;;9.45;6.13;;;6.80;99.90;;;;;;5066535;28;20025;-47
2023/01/09 03:38:09;;;;;;;10.35;5.90;;;6.70;99.90;;;;;;5067066;28;20410;-48
2023/01/09 03:40:35;;;;;;;10.68;6.57;;;6.70;99.90;;;;;;5068745;28;20027;-49
2023/01/09 03:43:01;;;;;;;10.45;6.25;;;6.70;99.90;;;;;;5068018;28;20020;-51
2023/01/09 03:45:27;;;;;;;12.38;7.57;;;6.70;99.90;;;;;;5068652;28;20023;-52
2023/01/09 03:47:53;;;;;;;8.65;6.38;;;6.60;99.90;;;;;;5066806;28;20040;-51
2023/01/09 03:50:18;;;;;;;12.27;7.18;;;6.60;99.90;;;;;;5067610;28;20025;-52
2023/01/09 03:52:44;;;;;;;16.90;8.30;;;6.60;99.90;;;;;;5068258;28;20112;-49
2023/01/09 03:55:10;;;;;;;15.23;7.95;;;6.60;99.90;;;;;;5060145;28;20039;-48
2023/01/09 03:57:35;;;;;;;13.65;8.05;;;6.50;99.90;;;;;;5066968;28;20032;-51
2023/01/09 04:00:02;;;;;;;15.68;9.15;;;6.60;99.90;;;;;;5068611;28;20385;-48
2023/01/09 04:02:27;;;;;;;13.98;8.18;;;6.60;99.90;;;;;;5069315;28;20031;-48
2023/01/09 04:04:53;;;;;;;12.02;8.00;;;6.60;99.90;;;;;;5072218;28;20021;-51
2023/01/09 04:07:18;;;;;;;13.63;7.63;;;6.60;99.90;;;;;;5070789;28;20193;-50
2023/01/09 04:09:44;;;;;;;12.27;7.65;;;6.60;99.90;;;;;;5070671;28;20048;-54
2023/01/09 04:12:10;;;;;;;10.57;7.65;;;6.60;99.90;;;;;;5071410;28;20024;-48
2023/01/09 04:14:36;;;;;;;14.85;8.88;;;6.60;99.90;;;;;;5048887;28;20095;-48
2023/01/09 04:17:01;;;;;;;11.82;7.85;;;6.60;99.90;;;;;;5049561;28;20408;-49
2023/01/09 04:19:27;;;;;;;20.50;9.70;;;6.60;99.90;;;;;;5051586;28;20449;-51
2023/01/09 04:21:53;;;;;;;18.35;10.30;;;6.60;99.90;;;;;;5051442;28;20025;-49
2023/01/09 04:24:18;;;;;;;18.13;9.93;;;6.60;99.90;;;;;;5058015;28;20025;-51
2023/01/09 04:26:44;;;;;;;17.92;10.32;;;6.60;99.90;;;;;;5063658;28;20637;-49
2023/01/09 04:29:10;;;;;;;15.32;9.00;;;6.60;99.90;;;;;;5070604;28;20059;-48
2023/01/09 04:31:35;;;;;;;19.30;10.73;;;6.60;99.90;;;;;;5071514;28;20029;-48
2023/01/09 04:34:01;;;;;;;19.33;9.90;;;6.50;99.90;;;;;;5062198;28;20053;-50
2023/01/09 04:36:27;;;;;;;18.65;9.77;;;6.50;99.90;;;;;;5040339;28;20024;-49
2023/01/09 04:38:53;;;;;;;17.83;10.30;;;6.50;99.90;;;;;;5045701;28;20486;-51
2023/01/09 04:44:03;;;;;;;22.08;11.45;;;6.50;99.90;;;;;;5045586;28;20028;-51
2023/01/09 04:46:29;;;;;;;21.45;12.32;;;6.50;99.90;;;;;;5056184;28;20028;-50
2023/01/09 04:48:55;;;;;;;20.15;10.73;;;6.50;99.90;;;;;;5040030;28;20398;-50
2023/01/09 04:51:21;;;;;;;21.48;12.00;;;6.50;99.90;;;;;;5038513;28;20030;-50
2023/01/09 04:53:46;;;;;;;24.33;12.45;;;6.50;99.90;;;;;;5040787;28;20033;-47
2023/01/09 04:56:12;;;;;;;21.67;10.95;;;6.50;99.90;;;;;;5041928;28;20424;-48
2023/01/09 04:58:37;;;;;;;20.13;12.35;;;6.50;99.90;;;;;;5040770;28;20056;-50
2023/01/09 05:01:03;;;;;;;21.02;12.40;;;6.50;99.90;;;;;;5039027;28;20067;-49
2023/01/09 05:03:29;;;;;;;20.73;12.07;;;6.60;99.90;;;;;;5034852;28;20024;-49
2023/01/09 05:06:01;;;;;;;21.58;12.50;;;6.60;99.90;;;;;;5042670;28;20662;-48
2023/01/09 05:08:29;;;;;;;23.83;12.20;;;6.50;99.90;;;;;;5051528;28;20701;-49
2023/01/09 05:10:55;;;;;;;18.00;11.52;;;6.60;99.90;;;;;;5049582;28;20033;-51
2023/01/09 05:13:21;;;;;;;25.52;13.43;;;6.60;99.90;;;;;;5050748;28;20513;-51
2023/01/09 05:15:47;;;;;;;27.35;13.73;;;6.60;99.90;;;;;;5045614;28;20722;-50
2023/01/09 05:18:12;;;;;;;22.38;12.75;;;6.60;99.90;;;;;;5031676;28;20474;-49
2023/01/09 05:20:38;;;;;;;27.17;13.45;;;6.50;99.90;;;;;;5031777;28;20521;-48
2023/01/09 05:23:04;;;;;;;26.80;13.90;;;6.60;99.90;;;;;;5031697;28;20029;-48
2023/01/09 05:25:29;;;;;;;31.35;15.52;;;6.60;99.90;;;;;;5059419;28;20025;-51
2023/01/09 05:27:55;;;;;;;32.78;14.85;;;6.60;99.90;;;;;;5068403;28;20032;-50
2023/01/09 05:30:21;;;;;;;25.13;14.88;;;6.60;99.90;;;;;;5059845;28;20056;-51
2023/01/09 05:32:46;;;;;;;30.83;16.70;;;6.60;99.90;;;;;;5051712;28;20108;-50
2023/01/09 05:35:12;;;;;;;31.60;15.68;;;6.60;99.90;;;;;;5049397;28;20041;-49
2023/01/09 05:37:38;;;;;;;26.08;14.10;;;6.50;99.90;;;;;;5051952;28;20068;-51
2023/01/09 05:40:05;;;;;;;34.88;17.10;;;6.60;99.90;;;;;;5051781;28;20028;-50
2023/01/09 05:42:31;;;;;;;26.60;14.80;;;6.60;99.90;;;;;;5051361;28;20771;-50
2023/01/09 05:44:57;;;;;;;30.25;16.10;;;6.60;99.90;;;;;;5050492;28;20119;-51
2023/01/09 05:47:23;;;;;;;38.53;18.60;;;6.60;99.90;;;;;;5051917;28;20577;-51
2023/01/09 05:49:48;;;;;;;38.85;18.88;;;6.60;99.90;;;;;;5051751;28;20074;-49
2023/01/09 05:52:14;;;;;;;37.80;19.08;;;6.60;99.90;;;;;;5051224;28;20028;-49
2023/01/09 05:54:40;;;;;;;34.40;17.00;;;6.50;99.90;;;;;;5051651;28;20021;-51
2023/01/09 05:57:05;;;;;;;38.50;17.08;;;6.50;99.90;;;;;;5051744;28;20025;-51
2023/01/09 05:59:31;;;;;;;46.55;20.50;;;6.50;99.90;;;;;;5060923;28;20025;-51
2023/01/09 06:01:57;;;;;;;41.67;19.73;;;6.50;99.90;;;;;;5069928;28;20115;-48
2023/01/09 06:04:23;;;;;;;40.47;18.40;;;6.50;99.90;;;;;;5069042;28;20036;-51
2023/01/09 06:06:48;;;;;;;43.05;21.02;;;6.50;99.90;;;;;;5051461;28;20151;-48
2023/01/09 06:09:14;;;;;;;35.05;17.42;;;6.50;99.90;;;;;;5051174;28;20037;-50
2023/01/09 06:11:39;;;;;;;36.08;17.42;;;6.40;99.90;;;;;;5051266;28;20033;-51
2023/01/09 06:14:05;;;;;;;37.63;18.30;;;6.50;99.90;;;;;;5049764;28;20108;-52
2023/01/09 06:16:31;;;;;;;26.73;14.20;;;6.50;99.90;;;;;;5037363;28;20026;-49
2023/01/09 06:18:56;;;;;;;27.83;13.65;;;6.50;99.90;;;;;;5030171;28;20075;-54
2023/01/09 06:21:23;;;;;;;26.38;13.95;;;6.50;99.90;;;;;;5031551;28;20073;-52
2023/01/09 06:23:49;;;;;;;24.17;13.85;;;6.50;99.90;;;;;;5046724;28;20023;-52
2023/01/09 06:26:14;;;;;;;23.88;12.63;;;6.50;99.90;;;;;;5042451;28;20442;-53
2023/01/09 06:28:40;;;;;;;28.70;12.40;;;6.60;99.90;;;;;;5040783;28;21099;-50
2023/01/09 06:31:06;;;;;;;22.25;11.73;;;6.60;99.90;;;;;;5051606;28;20036;-49
2023/01/09 06:33:31;;;;;;;24.45;11.82;;;6.60;99.90;;;;;;5057047;28;20036;-52
2023/01/09 06:35:57;;;;;;;23.73;12.38;;;6.60;99.90;;;;;;5048898;28;20071;-49
2023/01/09 06:38:23;;;;;;;19.70;11.05;;;6.60;99.90;;;;;;5047078;28;20026;-51
2023/01/09 06:40:49;;;;;;;19.30;10.93;;;6.60;99.90;;;;;;5054336;28;20028;-51
2023/01/09 06:43:15;;;;;;;18.52;10.35;;;6.60;99.90;;;;;;5050699;28;20135;-51
2023/01/09 06:45:42;;;;;;;18.73;9.73;;;6.60;99.90;;;;;;5057228;28;20024;-49
2023/01/09 06:48:09;;;;;;;23.50;9.57;;;6.60;99.90;;;;;;5063722;28;20054;-51
2023/01/09 06:50:35;;;;;;;14.45;8.43;;;6.60;99.90;;;;;;5056800;28;20406;-49
2023/01/09 06:53:00;;;;;;;15.85;8.35;;;6.60;99.90;;;;;;5046353;28;20031;-50
2023/01/09 06:55:26;;;;;;;12.40;7.47;;;6.60;99.90;;;;;;5046909;28;20032;-49
2023/01/09 06:57:52;;;;;;;12.52;7.75;;;6.60;99.90;;;;;;5050719;28;20037;-49
2023/01/09 07:00:18;;;;;;;10.95;6.88;;;6.60;99.90;;;;;;5064902;28;20028;-51
2023/01/09 07:02:43;;;;;;;11.60;7.47;;;6.60;99.90;;;;;;5056597;28;20112;-54
2023/01/09 07:05:10;;;;;;;14.85;7.43;;;6.70;99.90;;;;;;5054871;28;20025;-52
2023/01/09 07:07:37;;;;;;;14.40;7.15;;;6.60;99.90;;;;;;5063421;28;20016;-52
2023/01/09 07:10:03;;;;;;;15.63;7.25;;;6.70;99.90;;;;;;5061381;28;20036;-48
2023/01/09 07:12:29;;;;;;;20.67;7.68;;;6.70;99.90;;;;;;5059356;28;20031;-51
2023/01/09 07:14:54;;;;;;;16.13;7.53;;;6.80;99.90;;;;;;5060205;28;20024;-49
2023/01/09 07:17:20;;;;;;;14.35;7.50;;;6.80;99.90;;;;;;5065276;28;20129;-51
2023/01/09 07:19:46;;;;;;;14.40;7.80;;;6.80;99.90;;;;;;5056687;28;20396;-51
2023/01/09 07:22:12;;;;;;;15.40;7.53;;;6.80;99.90;;;;;;5045855;28;20025;-50
2023/01/09 07:24:37;;;;;;;17.13;8.02;;;6.80;99.90;;;;;;5049557;28;20266;-50
2023/01/09 07:27:03;;;;;;;11.95;7.53;;;6.80;99.90;;;;;;5050438;28;20017;-48
2023/01/09 07:29:29;;;;;;;18.17;8.65;;;6.80;99.90;;;;;;5046995;28;20029;-48
2023/01/09 07:31:55;;;;;;;19.10;9.02;;;6.80;99.90;;;;;;5055116;28;20029;-51
2023/01/09 07:34:20;;;;;;;15.50;8.68;;;6.80;99.90;;;;;;5050700;28;20385;-48
2023/01/09 07:36:47;;;;;;;20.13;8.88;;;6.80;99.90;;;;;;5051269;28;20492;-49
2023/01/09 07:39:13;;;;;;;17.00;9.07;;;6.80;99.90;;;;;;5045527;28;20064;-51
2023/01/09 07:41:39;;;;;;;16.65;8.55;;;6.80;99.90;;;;;;5055501;28;20045;-51
2023/01/09 07:44:05;;;;;;;14.35;8.85;;;6.80;99.90;;;;;;5063985;28;20032;-50
2023/01/09 07:46:31;;;;;;;20.15;9.73;;;6.70;99.90;;;;;;5064630;28;20046;-49
2023/01/09 07:48:57;;;;;;;22.30;9.88;;;6.70;99.90;;;;;;5066952;28;20029;-49
2023/01/09 07:51:23;;;;;;;21.05;9.77;;;6.70;99.90;;;;;;5069311;28;20029;-49
2023/01/09 07:53:48;;;;;;;19.80;10.25;;;6.70;99.90;;;;;;5056950;28;20021;-51
2023/01/09 07:56:14;;;;;;;21.92;10.82;;;6.70;99.90;;;;;;5053704;28;20071;-50
2023/01/09 07:58:40;;;;;;;23.60;9.82;;;6.70;99.90;;;;;;5064226;28;20100;-49
2023/01/09 08:01:05;;;;;;;15.60;9.57;;;6.70;99.90;;;;;;5073789;28;20025;-50
2023/01/09 08:03:32;;;;;;;21.40;9.80;;;6.70;99.90;;;;;;5073315;28;20062;-49
2023/01/09 08:05:58;;;;;;;22.05;9.63;;;6.70;99.90;;;;;;5072511;28;20385;-51
2023/01/09 08:08:24;;;;;;;18.10;9.60;;;6.70;99.90;;;;;;5073732;28;20024;-49
2023/01/09 08:10:50;;;;;;;17.02;9.38;;;6.60;99.90;;;;;;5073251;28;20031;-49
2023/01/09 08:13:15;;;;;;;14.85;8.93;;;6.60;99.90;;;;;;5073350;28;20035;-50
2023/01/09 08:15:41;;;;;;;18.13;9.68;;;6.60;99.90;;;;;;5064262;28;20033;-51
2023/01/09 08:18:07;;;;;;;19.23;9.35;;;6.60;99.90;;;;;;5054657;28;20506;-54
2023/01/09 08:20:32;;;;;;;17.77;9.68;;;6.60;99.90;;;;;;5051806;28;20025;-51
2023/01/09 08:22:58;;;;;;;16.65;9.57;;;6.50;99.90;;;;;;5052345;28;20024;-52
2023/01/09 08:25:24;;;;;;;19.85;9.52;;;6.50;99.90;;;;;;5051762;28;20029;-50
2023/01/09 08:27:50;;;;;;;18.35;9.45;;;6.40;99.90;;;;;;5055719;28;20124;-52
2023/01/09 08:30:16;;;;;;;17.10;9.70;;;6.40;99.90;;;;;;5053279;28;20088;-48
2023/01/09 08:32:42;;;;;;;20.20;9.50;;;6.30;99.90;;;;;;5053647;28;20028;-50
2023/01/09 08:35:09;;;;;;;19.88;10.93;;;6.30;99.90;;;;;;5064865;28;20031;-51
2023/01/09 08:37:34;;;;;;;21.95;11.02;;;6.30;99.90;;;;;;5071668;28;20024;-53
2023/01/09 08:40:00;;;;;;;19.98;11.57;;;6.20;99.90;;;;;;5058445;28;20465;-49
2023/01/09 08:47:56;;;;;;;20.10;12.43;;;6.10;99.90;;;;;;5052515;28;20543;-52
2023/01/09 08:50:22;;;;;;;24.52;13.30;;;6.10;99.90;;;;;;5054261;28;20036;-49
2023/01/09 08:52:47;;;;;;;23.63;12.50;;;6.10;99.90;;;;;;5063938;28;20378;-51
2023/01/09 08:55:13;;;;;;;31.35;14.30;;;6.00;99.90;;;;;;5072872;28;20117;-51
2023/01/09 08:57:49;;;;;;;28.30;14.02;;;6.10;99.90;;;;;;5071614;28;20497;-52
2023/01/09 09:00:20;;;;;;;28.80;13.52;;;6.00;99.90;;;;;;5071606;28;20105;-52
2023/01/09 09:02:52;;;;;;;36.95;13.35;;;6.00;99.90;;;;;;5052397;28;20040;-49
2023/01/09 09:05:19;;;;;;;29.35;14.27;;;6.10;99.90;;;;;;5038475;28;20029;-50
2023/01/09 09:07:47;;;;;;;32.55;14.32;;;6.10;99.90;;;;;;5041057;28;20028;-50
2023/01/09 09:10:12;;;;;;;39.53;14.88;;;6.10;99.90;;;;;;5040919;28;20031;-50
2023/01/09 09:12:38;;;;;;;32.50;14.13;;;6.00;99.90;;;;;;5047582;28;20041;-50
2023/01/09 09:15:15;;;;;;;34.92;14.20;;;6.00;99.90;;;;;;5039454;28;20036;-51
2023/01/09 09:17:43;;;;;;;31.42;14.15;;;6.10;99.90;;;;;;5035351;28;20025;-52
2023/01/09 09:20:09;;;;;;;25.88;12.98;;;6.10;99.90;;;;;;5044549;28;20205;-52
2023/01/09 09:22:35;;;;;;;23.05;12.73;;;6.10;99.90;;;;;;5047593;28;20478;-49
2023/01/09 09:25:03;;;;;;;31.38;13.15;;;6.10;99.90;;;;;;5049984;28;20032;-49
2023/01/09 09:27:29;;;;;;;26.77;13.27;;;6.20;99.90;;;;;;5049879;28;20078;-49
2023/01/09 09:29:55;;;;;;;25.60;12.98;;;6.10;99.90;;;;;;5060611;28;20031;-53
2023/01/09 09:32:20;;;;;;;31.35;13.02;;;6.20;99.90;;;;;;5054731;28;20029;-52
2023/01/09 09:34:46;;;;;;;28.33;13.50;;;6.10;99.90;;;;;;5060733;28;20020;-49
2023/01/09 09:37:12;;;;;;;28.05;11.85;;;6.20;99.90;;;;;;5069231;28;20090;-51
2023/01/09 09:39:37;;;;;;;23.83;12.32;;;6.10;99.90;;;;;;5041097;28;20251;-52
2023/01/09 09:45:33;;;;;;;30.08;11.88;;;6.20;99.90;;;;;;5034485;28;20113;-49
2023/01/09 09:47:58;;;;;;;24.75;11.55;;;6.30;99.90;;;;;;5042046;28;20036;-50
2023/01/09 09:50:50;;;;;;;21.38;11.82;;;6.40;99.90;;;;;;5042222;28;20021;-49
2023/01/09 09:53:35;;;;;;;23.70;11.48;;;6.40;99.90;;;;;;5036316;28;20565;-52
2023/01/09 09:56:01;;;;;;;17.73;10.07;;;6.30;99.90;;;;;;5040824;28;20114;-50
2023/01/09 09:58:45;;;;;;;24.90;11.43;;;6.40;99.90;;;;;;5039130;28;20137;-50
2023/01/09 10:01:17;;;;;;;16.13;9.65;;;6.50;99.90;;;;;;5038873;28;20024;-48
2023/01/09 10:03:48;;;;;;;22.88;10.07;;;6.50;99.90;;;;;;5043460;28;20482;-49
2023/01/09 10:06:44;;;;;;;18.30;9.57;;;6.50;99.90;;;;;;5059390;28;20521;-50
2023/01/09 10:09:42;;;;;;;22.65;9.82;;;6.60;99.90;;;;;;5056238;28;20367;-50
2023/01/09 10:12:27;;;;;;;23.90;10.50;;;6.60;99.90;;;;;;5026742;28;20041;-50
2023/01/09 10:14:56;;;;;;;18.75;9.45;;;6.70;99.90;;;;;;5049417;28;20035;-49
2023/01/09 10:17:43;;;;;;;16.58;8.68;;;6.80;99.90;;;;;;5064020;28;20394;-51
2023/01/09 10:20:24;;;;;;;19.35;8.77;;;6.90;99.90;;;;;;5065680;28;20028;-47
2023/01/09 10:23:23;;;;;;;18.50;7.15;;;6.90;99.90;;;;;;5047912;28;20427;-52
2023/01/09 10:26:04;;;;;;;15.38;7.82;;;6.90;99.90;;;;;;5048187;28;20025;-50
2023/01/09 10:29:10;;;;;;;14.20;6.75;;;6.90;99.90;;;;;;5048200;28;20013;-49
2023/01/09 10:32:01;;;;;;;19.08;6.30;;;7.00;99.90;;;;;;5048308;28;20478;-51
2023/01/09 10:35:04;;;;;;;11.32;6.38;;;6.90;99.90;;;;;;5059901;28;20028;-50
2023/01/09 10:37:41;;;;;;;12.77;5.20;;;7.10;99.90;;;;;;5067966;28;20042;-51
2023/01/09 10:40:28;;;;;;;10.43;5.22;;;7.30;99.90;;;;;;5066866;28;20028;-52
2023/01/09 10:43:20;;;;;;;9.70;5.25;;;7.40;99.90;;;;;;5062377;28;20587;-51
2023/01/09 10:45:51;;;;;;;11.15;3.75;;;8.00;99.90;;;;;;5060848;28;20432;-50
2023/01/09 10:48:36;;;;;;;9.23;3.38;;;8.40;99.90;;;;;;5066110;28;20435;-51
2023/01/09 10:51:11;;;;;;;5.25;3.03;;;8.90;99.90;;;;;;5052569;28;20064;-52
2023/01/09 10:53:44;;;;;;;15.05;3.20;;;8.70;99.90;;;;;;5029389;28;20037;-52
2023/01/09 10:56:39;;;;;;;12.88;3.10;;;8.40;99.90;;;;;;5044205;28;20508;-52
2023/01/09 10:59:07;;;;;;;7.35;2.75;;;8.30;99.90;;;;;;5055844;28;20037;-51
2023/01/09 11:01:38;;;;;;;8.02;2.47;;;8.40;99.90;;;;;;5069217;28;20020;-50
2023/01/09 11:04:24;;;;;;;6.20;2.45;;;8.50;99.90;;;;;;5068509;28;20035;-52
2023/01/09 11:06:55;;;;;;;6.72;2.45;;;9.30;99.90;;;;;;5066892;28;20214;-52
2023/01/09 11:09:21;;;;;;;4.50;1.90;;;9.30;99.90;;;;;;5059733;28;20036;-52
2023/01/09 11:11:46;;;;;;;4.88;1.52;;;9.20;99.90;;;;;;5048146;28;20033;-53
2023/01/09 11:14:32;;;;;;;9.98;2.28;;;9.20;99.90;;;;;;5056316;28;20040;-50
2023/01/09 11:17:02;;;;;;;6.15;1.55;;;9.00;99.90;;;;;;5034575;28;20346;-52
2023/01/09 11:19:28;;;;;;;3.88;1.42;;;8.90;99.90;;;;;;5056466;28;20021;-53
2023/01/09 11:22:07;;;;;;;6.50;1.65;;;8.90;99.90;;;;;;5066076;28;20094;-53
2023/01/09 11:24:33;;;;;;;7.50;1.80;;;8.90;99.90;;;;;;5069422;28;20024;-52
2023/01/09 11:27:22;;;;;;;7.57;1.63;;;8.80;99.90;;;;;;5044746;28;20017;-51
2023/01/09 11:30:05;;;;;;;7.88;1.80;;;9.10;99.90;;;;;;5049460;28;20490;-52
2023/01/09 11:32:31;;;;;;;8.88;1.95;;;9.90;99.90;;;;;;5056819;28;20036;-53
2023/01/09 11:34:57;;;;;;;4.05;1.38;;;10.60;99.90;;;;;;5056818;28;20376;-53
2023/01/09 11:37:32;;;;;;;3.97;1.40;;;11.00;99.90;;;;;;5048977;28;20084;-53
2023/01/09 11:39:59;;;;;;;5.88;1.60;;;11.40;99.90;;;;;;5047951;28;20032;-52
2023/01/09 11:45:28;;;;;;;5.53;1.60;;;11.60;99.90;;;;;;5027586;28;20493;-51
2023/01/09 11:47:54;;;;;;;6.57;1.50;;;11.50;99.90;;;;;;5046726;28;20564;-48
2023/01/09 11:50:25;;;;;;;2.90;1.50;;;11.40;99.90;;;;;;5039332;28;20106;-51
2023/01/09 11:53:12;;;;;;;2.40;1.42;;;11.30;99.90;;;;;;5042216;28;20021;-51
2023/01/09 11:55:38;;;;;;;3.40;1.90;;;10.80;99.90;;;;;;5054702;28;20245;-52
2023/01/09 11:58:04;;;;;;;5.68;1.30;;;10.70;99.90;;;;;;5048236;28;20032;-52
2023/01/09 12:00:43;;;;;;;4.05;1.50;;;10.70;99.90;;;;;;5048546;28;20051;-51
2023/01/09 12:03:15;;;;;;;5.10;1.50;;;10.90;99.90;;;;;;5050073;28;20032;-52
2023/01/09 12:05:55;;;;;;;4.80;2.17;;;10.90;99.90;;;;;;5058753;28;20032;-52
2023/01/09 12:08:52;;;;;;;4.05;1.40;;;10.60;99.90;;;;;;5068407;28;20021;-50
2023/01/09 12:11:36;;;;;;;5.13;1.60;;;10.60;99.90;;;;;;5068144;28;20036;-52
2023/01/09 12:14:33;;;;;;;7.63;2.08;;;10.50;99.90;;;;;;5068072;28;20036;-52
2023/01/09 12:17:14;;;;;;;3.50;1.65;;;10.60;99.90;;;;;;5052391;28;20025;-51
2023/01/09 12:19:53;;;;;;;;;;;10.50;99.90;;;;;;5067458;28;20020;-52
2023/01/09 12:22:33;;;;;;;5.03;2.05;;;10.60;99.90;;;;;;5063472;28;20362;-49
2023/01/09 12:25:20;;;;;;;4.10;1.20;;;10.40;99.90;;;;;;5053059;28;20029;-51
2023/01/09 12:28:16;;;;;;;3.13;1.08;;;10.30;99.90;;;;;;5051639;28;20037;-52
2023/01/09 12:31:08;;;;;;;3.80;1.25;;;10.40;99.90;;;;;;5052277;28;20029;-50
2023/01/09 12:33:49;;;;;;;1.83;1.00;;;10.00;99.90;;;;;;5057921;28;20398;-50
2023/01/09 12:36:40;;;;;;;5.78;1.30;;;9.90;99.90;;;;;;5053834;28;20309;-52
2023/01/09 12:39:31;;;;;;;3.38;1.10;;;9.90;99.90;;;;;;5046609;28;20397;-52
2023/01/09 12:42:23;;;;;;;1.95;1.08;;;9.80;99.90;;;;;;5042293;28;20504;-51
2023/01/09 12:44:55;;;;;;;1.98;1.08;;;9.70;99.90;;;;;;5046085;28;20025;-52
2023/01/09 12:47:24;;;;;;;4.32;1.42;;;9.60;99.90;;;;;;5060352;28;20032;-50
2023/01/09 12:50:25;;;;;;;7.68;1.63;;;9.50;99.90;;;;;;5071092;28;20436;-53
2023/01/09 12:53:12;;;;;;;1.77;1.10;;;9.50;99.90;;;;;;5051261;28;20025;-52
2023/01/09 12:55:43;;;;;;;7.95;1.48;;;9.40;99.90;;;;;;5050143;28;20025;-53
2023/01/09 12:58:21;;;;;;;2.72;1.05;;;9.40;99.90;;;;;;5059161;28;20039;-53
2023/01/09 13:00:51;;;;;;;2.72;1.17;;;9.40;99.90;;;;;;5070712;28;20112;-53
2023/01/09 13:03:23;;;;;;;5.00;1.35;;;9.30;99.90;;;;;;5068502;28;20381;-53
2023/01/09 13:05:52;;;;;;;5.22;1.30;;;9.30;99.90;;;;;;5054750;28;20099;-52
2023/01/09 13:08:53;;;;;;;2.28;1.20;;;9.20;99.90;;;;;;5071133;28;20033;-52
2023/01/09 13:11:34;;;;;;;2.10;1.20;;;9.20;99.90;;;;;;5047706;28;20131;-52
2023/01/09 13:14:16;;;;;;;1.88;0.90;;;9.10;99.90;;;;;;5069800;28;20474;-52
2023/01/09 13:16:47;;;;;;;4.40;0.93;;;9.20;99.90;;;;;;5071244;28;20040;-52
2023/01/09 13:19:18;;;;;;;2.42;1.10;;;9.20;99.90;;;;;;5070821;28;20433;-52
2023/01/09 13:21:44;;;;;;;5.78;1.00;;;9.10;99.90;;;;;;5070724;28;20075;-50
2023/01/09 13:24:16;;;;;;;3.85;1.23;;;9.10;99.90;;;;;;5070817;28;20023;-52
2023/01/09 13:26:51;;;;;;;3.78;1.13;;;9.10;99.90;;;;;;5070884;28;20029;-53